Time;durP1;ratioP1;P1;durP2;ratioP2;P2;SDS_P1;SDS_P2;PMS_P1;PMS_P2;Temp;Humidity;BMP_temperature;BMP_pressure;BME280_temperature;BME280_humidity;BME280_pressure;Samples;Min_cycle;Max_cycle;Signal;HPM_P1;HPM_P2
2021/12/08 00:00:56;;;;;;;5.32;2.20;;;7.60;99.90;;;;;;5053480;28;20377;-70
2021/12/08 00:03:24;;;;;;;4.72;1.83;;;7.70;99.90;;;;;;5055259;28;20025;-70
2021/12/08 00:05:51;;;;;;;2.45;1.55;;;7.60;99.90;;;;;;5052143;28;20017;-70
2021/12/08 00:08:20;;;;;;;5.28;1.88;;;7.70;99.90;;;;;;5054547;28;20100;-70
2021/12/08 00:13:02;;;;;;;3.85;1.77;;;7.70;99.90;;;;;;5063247;28;20029;-70
2021/12/08 00:13:38;;;;;;;2.60;2.20;;;7.70;99.90;;;;;;5060973;28;20033;-70
2021/12/08 00:16:08;;;;;;;4.72;2.40;;;7.70;99.90;;;;;;5065359;28;20047;-70
2021/12/08 00:18:34;;;;;;;5.35;2.10;;;7.70;99.90;;;;;;5057070;28;20048;-70
2021/12/08 00:21:06;;;;;;;4.15;1.80;;;7.80;99.90;;;;;;5066056;28;20482;-70
2021/12/08 00:23:32;;;;;;;5.97;1.92;;;7.80;99.90;;;;;;5065003;28;20024;-70
2021/12/08 00:25:58;;;;;;;2.92;1.63;;;7.90;99.90;;;;;;5071047;28;20428;-70
2021/12/08 00:28:24;;;;;;;4.55;2.00;;;7.90;99.90;;;;;;5057324;28;20035;-70
2021/12/08 00:30:54;;;;;;;5.90;2.05;;;7.90;99.90;;;;;;5050705;28;20070;-70
2021/12/08 00:33:21;;;;;;;6.80;2.33;;;7.90;99.90;;;;;;5063320;28;20028;-71
2021/12/08 00:35:49;;;;;;;3.90;2.35;;;7.90;99.90;;;;;;5060144;28;20041;-70
2021/12/08 00:38:17;;;;;;;4.18;2.28;;;7.90;99.90;;;;;;5069479;28;20028;-71
2021/12/08 00:40:44;;;;;;;7.85;5.93;;;7.90;99.90;;;;;;5057156;28;20107;-70
2021/12/08 00:43:10;;;;;;;7.15;2.50;;;7.90;99.90;;;;;;5063381;28;20021;-70
2021/12/08 00:45:36;;;;;;;4.70;3.03;;;7.90;99.90;;;;;;5059642;28;20032;-70
2021/12/08 00:48:05;;;;;;;3.25;1.92;;;8.00;99.90;;;;;;5064912;28;20511;-71
2021/12/08 00:50:36;;;;;;;5.88;2.90;;;8.00;99.90;;;;;;5069907;28;20025;-70
2021/12/08 00:53:02;;;;;;;3.85;2.40;;;8.10;99.90;;;;;;5059484;28;20103;-71
2021/12/08 00:55:29;;;;;;;4.72;2.42;;;8.00;99.90;;;;;;5061386;28;20037;-70
2021/12/08 00:57:55;;;;;;;3.38;2.20;;;8.00;99.90;;;;;;5062280;28;20053;-71
2021/12/08 01:00:27;;;;;;;4.07;2.17;;;8.00;99.90;;;;;;5048058;28;20130;-71
2021/12/08 01:02:53;;;;;;;5.47;2.30;;;8.00;99.90;;;;;;5058913;28;20025;-71
2021/12/08 01:05:22;;;;;;;4.30;3.30;;;8.10;99.90;;;;;;5062332;28;20028;-71
2021/12/08 01:07:47;;;;;;;4.00;2.10;;;8.10;99.90;;;;;;5066474;28;20107;-71
2021/12/08 01:10:19;;;;;;;3.38;1.83;;;8.10;99.90;;;;;;5056592;28;20104;-71
2021/12/08 01:12:46;;;;;;;3.25;1.50;;;8.10;99.90;;;;;;5066340;28;20013;-71
2021/12/08 01:15:12;;;;;;;8.45;3.33;;;8.10;99.90;;;;;;5052092;28;20037;-71
2021/12/08 01:17:38;;;;;;;3.28;1.50;;;8.00;99.90;;;;;;5052533;28;20481;-71
2021/12/08 01:20:07;;;;;;;3.42;1.50;;;8.10;99.90;;;;;;5069030;28;20020;-71
2021/12/08 01:22:33;;;;;;;6.40;1.50;;;8.10;99.90;;;;;;5055588;28;20528;-71
2021/12/08 01:24:58;;;;;;;1.88;1.48;;;8.10;99.90;;;;;;5066175;28;20115;-71
2021/12/08 01:27:24;;;;;;;2.83;1.27;;;8.10;99.90;;;;;;5062265;28;20543;-71
2021/12/08 01:29:50;;;;;;;3.78;1.38;;;8.10;99.90;;;;;;5050826;28;20021;-71
2021/12/08 01:32:15;;;;;;;2.97;1.40;;;8.10;99.90;;;;;;5053590;28;20036;-71
2021/12/08 01:34:41;;;;;;;3.78;1.40;;;8.20;99.90;;;;;;5060079;28;20078;-71
2021/12/08 01:37:07;;;;;;;2.90;1.35;;;8.20;99.90;;;;;;5064151;28;20058;-71
2021/12/08 01:39:33;;;;;;;6.30;1.40;;;8.20;99.90;;;;;;5064370;28;20070;-71
2021/12/08 01:41:58;;;;;;;6.28;1.33;;;8.20;99.90;;;;;;5056752;28;20033;-71
2021/12/08 01:47:08;;;;;;;5.55;1.30;;;8.20;99.90;;;;;;5049905;28;20082;-71
2021/12/08 01:49:34;;;;;;;7.43;1.50;;;8.20;99.90;;;;;;5064184;28;20054;-71
2021/12/08 01:52:00;;;;;;;6.95;1.50;;;8.20;99.90;;;;;;5056265;28;20104;-71
2021/12/08 01:54:26;;;;;;;2.80;1.35;;;8.20;99.90;;;;;;5061151;28;20108;-71
2021/12/08 01:56:51;;;;;;;7.13;1.70;;;8.30;99.90;;;;;;5070132;28;20033;-71
2021/12/08 01:59:18;;;;;;;4.43;1.55;;;8.30;99.90;;;;;;5063341;28;20021;-71
2021/12/08 02:01:45;;;;;;;5.60;2.05;;;8.30;99.90;;;;;;5053922;28;20040;-71
2021/12/08 02:04:11;;;;;;;6.82;1.38;;;8.30;99.90;;;;;;5067897;28;20017;-71
2021/12/08 02:06:41;;;;;;;6.88;1.58;;;8.30;99.90;;;;;;5054638;28;20447;-71
2021/12/08 02:09:10;;;;;;;4.45;1.60;;;8.30;99.90;;;;;;5067829;28;20036;-71
2021/12/08 02:11:42;;;;;;;4.18;2.03;;;8.30;99.90;;;;;;5059682;28;20029;-71
2021/12/08 02:14:08;;;;;;;9.80;5.30;;;8.30;99.90;;;;;;5053209;28;20029;-71
2021/12/08 02:16:34;;;;;;;6.82;2.60;;;8.20;99.90;;;;;;5067332;28;20278;-71
2021/12/08 02:19:01;;;;;;;7.65;2.20;;;8.40;99.90;;;;;;5059112;28;20095;-71
2021/12/08 02:21:34;;;;;;;5.85;2.13;;;8.30;99.90;;;;;;5061423;28;20037;-71
2021/12/08 02:24:04;;;;;;;6.53;1.83;;;8.30;99.90;;;;;;5056384;28;20045;-71
2021/12/08 02:26:30;;;;;;;6.15;1.80;;;8.30;99.90;;;;;;5066943;28;20094;-71
2021/12/08 02:28:58;;;;;;;4.70;1.85;;;8.40;99.90;;;;;;5057606;28;20342;-71
2021/12/08 02:31:35;;;;;;;9.38;1.80;;;8.30;99.90;;;;;;5055475;28;20119;-71
2021/12/08 02:47:52;;;;;;;8.70;2.20;;;8.30;99.90;;;;;;5058884;28;20513;-71
2021/12/08 02:50:35;;;;;;;7.35;2.00;;;8.30;99.90;;;;;;5068112;28;20029;-71
2021/12/08 02:53:01;;;;;;;15.13;4.97;;;8.30;99.90;;;;;;5050857;28;20468;-71
2021/12/08 02:55:28;;;;;;;6.32;2.05;;;8.30;99.90;;;;;;5059969;28;20488;-71
2021/12/08 02:57:55;;;;;;;7.07;1.60;;;8.30;99.90;;;;;;5054912;28;20021;-71
2021/12/08 03:00:25;;;;;;;6.72;1.50;;;8.20;99.90;;;;;;5049103;28;20034;-71
2021/12/08 03:02:52;;;;;;;5.40;1.85;;;8.20;99.90;;;;;;5070013;28;20017;-71
2021/12/08 03:05:19;;;;;;;6.78;3.08;;;8.30;99.90;;;;;;5061912;28;20025;-71
2021/12/08 03:07:44;;;;;;;7.63;2.60;;;8.30;99.90;;;;;;5060918;28;20036;-71
2021/12/08 03:10:15;;;;;;;3.70;1.80;;;8.40;99.90;;;;;;5067489;28;20381;-71
2021/12/08 03:12:42;;;;;;;9.10;1.95;;;8.40;99.90;;;;;;5052420;28;20115;-71
2021/12/08 03:15:10;;;;;;;8.23;1.85;;;8.30;99.90;;;;;;5059474;28;20047;-71
2021/12/08 03:17:36;;;;;;;7.43;2.15;;;8.40;99.90;;;;;;5062923;28;20029;-71
2021/12/08 03:20:08;;;;;;;10.43;1.65;;;8.30;99.90;;;;;;5069964;28;20056;-70
2021/12/08 03:22:37;;;;;;;9.25;1.92;;;8.30;99.90;;;;;;5042589;28;20009;-71
2021/12/08 03:25:06;;;;;;;12.13;2.17;;;8.30;99.90;;;;;;5067417;28;20032;-71
2021/12/08 03:27:41;;;;;;;8.98;2.30;;;8.30;99.90;;;;;;5066583;28;20111;-71
2021/12/08 03:30:23;;;;;;;9.93;1.77;;;8.30;99.90;;;;;;5046293;28;20496;-71
2021/12/08 03:32:55;;;;;;;9.48;2.10;;;8.20;99.90;;;;;;5040954;28;20025;-71
2021/12/08 03:35:21;;;;;;;9.93;1.50;;;8.30;99.90;;;;;;5058063;28;20516;-71
2021/12/08 03:37:47;;;;;;;7.82;1.90;;;8.30;99.90;;;;;;5068335;28;20021;-71
2021/12/08 03:40:19;;;;;;;10.00;2.20;;;8.10;99.90;;;;;;5058084;28;20036;-71
2021/12/08 03:42:46;;;;;;;9.97;2.80;;;8.10;99.90;;;;;;5059802;28;20480;-71
2021/12/08 03:45:32;;;;;;;8.32;2.22;;;8.00;99.90;;;;;;5064995;28;20294;-71
2021/12/08 03:48:03;;;;;;;12.80;2.58;;;8.00;99.90;;;;;;5069814;28;20492;-71
2021/12/08 03:50:32;;;;;;;6.30;2.30;;;8.00;99.90;;;;;;5069249;28;20064;-71
2021/12/08 03:52:58;;;;;;;8.80;1.83;;;7.90;99.90;;;;;;5060568;28;20377;-71
2021/12/08 03:55:24;;;;;;;5.43;1.50;;;7.80;99.90;;;;;;5061239;28;20044;-71
2021/12/08 03:57:50;;;;;;;10.68;2.30;;;7.60;99.90;;;;;;5060554;28;20078;-71
2021/12/08 04:00:22;;;;;;;9.15;1.58;;;7.70;99.90;;;;;;5050449;28;20025;-71
2021/12/08 04:02:49;;;;;;;4.78;2.05;;;7.70;99.90;;;;;;5072699;28;20107;-71
2021/12/08 04:05:20;;;;;;;11.20;1.77;;;7.70;99.90;;;;;;5064835;28;20032;-71
2021/12/08 04:07:52;;;;;;;6.07;1.35;;;7.70;99.90;;;;;;5067759;28;20044;-71
2021/12/08 04:10:20;;;;;;;8.68;1.58;;;7.70;99.90;;;;;;5056169;28;20016;-71
2021/12/08 04:12:52;;;;;;;8.30;1.65;;;7.70;99.90;;;;;;5055747;28;20033;-71
2021/12/08 04:15:21;;;;;;;2.92;1.10;;;7.80;99.90;;;;;;5056344;28;20064;-71
2021/12/08 04:17:50;;;;;;;4.63;1.08;;;7.70;99.90;;;;;;5055993;28;20031;-71
2021/12/08 04:20:31;;;;;;;5.63;1.70;;;7.70;99.90;;;;;;5056123;28;20416;-71
2021/12/08 04:23:00;;;;;;;7.32;1.58;;;7.80;99.90;;;;;;5053427;28;20024;-71
2021/12/08 04:25:30;;;;;;;10.40;1.60;;;7.70;99.90;;;;;;5056339;28;20025;-71
2021/12/08 04:27:59;;;;;;;3.80;1.25;;;7.70;99.90;;;;;;5047191;28;20032;-71
2021/12/08 04:30:40;;;;;;;9.55;1.40;;;7.60;99.90;;;;;;5053810;28;20428;-71
2021/12/08 04:33:07;;;;;;;3.80;1.27;;;7.60;99.90;;;;;;5055079;28;20067;-71
2021/12/08 04:35:32;;;;;;;5.07;1.45;;;7.60;99.90;;;;;;5053294;28;20048;-71
2021/12/08 04:38:05;;;;;;;4.97;1.60;;;7.60;99.90;;;;;;5068646;28;20024;-71
2021/12/08 04:40:51;;;;;;;11.73;1.45;;;7.50;99.90;;;;;;5056781;28;20058;-71
2021/12/08 04:43:26;;;;;;;6.13;1.38;;;7.40;99.90;;;;;;5064089;28;20071;-71
2021/12/08 04:46:13;;;;;;;8.68;1.40;;;7.30;99.90;;;;;;5068255;28;20476;-71
2021/12/08 04:51:33;;;;;;;7.30;1.10;;;7.40;99.90;;;;;;5065375;28;20029;-71
2021/12/08 05:10:16;;;;;;;8.15;2.30;;;7.30;99.90;;;;;;5066939;28;20366;-71
2021/12/08 05:12:46;;;;;;;6.53;1.55;;;7.20;99.90;;;;;;5057481;28;20016;-71
2021/12/08 05:15:23;;;;;;;8.48;2.50;;;7.20;99.90;;;;;;5064057;28;20048;-71
2021/12/08 05:17:57;;;;;;;6.60;1.75;;;7.20;99.90;;;;;;5066392;28;20028;-72
2021/12/08 05:20:26;;;;;;;11.18;2.67;;;7.10;99.90;;;;;;5054870;28;20616;-71
2021/12/08 05:23:05;;;;;;;10.63;2.05;;;7.10;99.90;;;;;;5066686;28;20078;-71
2021/12/08 05:25:34;;;;;;;13.48;2.33;;;7.20;99.90;;;;;;5064535;28;20024;-71
2021/12/08 05:28:04;;;;;;;13.50;3.00;;;7.10;99.90;;;;;;5057379;28;20460;-71
2021/12/08 05:30:47;;;;;;;11.35;2.00;;;7.10;99.90;;;;;;5050970;28;20034;-71
2021/12/08 05:33:14;;;;;;;12.63;3.58;;;7.10;99.90;;;;;;5066152;28;20393;-71
2021/12/08 05:35:42;;;;;;;13.02;2.65;;;7.00;99.90;;;;;;5059310;28;20056;-71
2021/12/08 05:38:08;;;;;;;9.75;2.30;;;7.00;99.90;;;;;;5068792;28;20028;-71
2021/12/08 05:40:47;;;;;;;13.25;3.03;;;7.00;99.90;;;;;;5054529;28;20046;-71
2021/12/08 05:43:14;;;;;;;9.18;2.13;;;7.00;99.90;;;;;;5061978;28;20484;-71
2021/12/08 05:45:41;;;;;;;9.82;2.10;;;7.00;99.90;;;;;;5065288;28;20373;-71
2021/12/08 05:48:07;;;;;;;9.18;2.20;;;7.00;99.90;;;;;;5049638;28;20054;-71
2021/12/08 05:51:00;;;;;;;13.50;2.78;;;6.90;99.90;;;;;;5040828;28;20024;-72
2021/12/08 05:53:27;;;;;;;10.95;2.75;;;7.00;99.90;;;;;;5060774;28;20032;-72
2021/12/08 05:55:55;;;;;;;13.75;2.45;;;7.10;99.90;;;;;;5066207;28;20038;-72
2021/12/08 05:58:26;;;;;;;10.05;2.05;;;7.00;99.90;;;;;;5055397;28;20028;-71
2021/12/08 06:00:55;;;;;;;9.98;2.45;;;6.90;99.90;;;;;;5051034;28;20032;-72
2021/12/08 06:03:21;;;;;;;15.68;2.28;;;6.90;99.90;;;;;;5069786;28;20122;-72
2021/12/08 06:05:49;;;;;;;19.52;2.72;;;6.90;99.90;;;;;;5056167;28;20393;-72
2021/12/08 06:08:15;;;;;;;8.73;2.75;;;6.90;99.90;;;;;;5068793;28;20060;-72
2021/12/08 06:10:42;;;;;;;12.40;2.92;;;6.90;99.90;;;;;;5056654;28;20035;-72
2021/12/08 06:13:10;;;;;;;15.63;2.83;;;6.90;99.90;;;;;;5063713;28;20025;-72
2021/12/08 06:15:39;;;;;;;12.77;2.83;;;6.80;99.90;;;;;;5063192;28;20028;-72
2021/12/08 06:18:06;;;;;;;13.63;2.40;;;6.80;99.90;;;;;;5056112;28;20029;-72
2021/12/08 06:20:32;;;;;;;12.15;2.65;;;6.70;99.90;;;;;;5067161;28;20044;-72
2021/12/08 06:22:58;;;;;;;11.05;2.25;;;6.70;99.90;;;;;;5053078;28;20047;-72
2021/12/08 06:25:26;;;;;;;11.50;2.60;;;6.70;99.90;;;;;;5062731;28;20038;-72
2021/12/08 06:27:52;;;;;;;10.90;2.40;;;6.70;99.90;;;;;;5070933;28;20031;-72
2021/12/08 06:30:21;;;;;;;6.70;1.83;;;6.70;99.90;;;;;;5044218;28;20033;-73
2021/12/08 06:32:47;;;;;;;6.45;2.42;;;6.60;99.90;;;;;;5066520;28;20033;-72
2021/12/08 06:35:21;;;;;;;10.88;2.95;;;6.70;99.90;;;;;;5056056;28;20030;-73
2021/12/08 06:37:47;;;;;;;10.02;2.58;;;6.70;99.90;;;;;;5065056;28;20024;-72
2021/12/08 06:40:29;;;;;;;13.10;2.03;;;6.70;99.90;;;;;;5055277;28;20098;-73
2021/12/08 06:42:59;;;;;;;13.20;2.30;;;6.60;99.90;;;;;;5065374;28;20024;-72
2021/12/08 06:45:29;;;;;;;7.85;2.15;;;6.60;99.90;;;;;;5062630;28;20036;-73
2021/12/08 06:47:57;;;;;;;6.15;1.60;;;6.60;99.90;;;;;;5056756;28;20112;-73
2021/12/08 06:50:31;;;;;;;8.05;2.20;;;6.70;99.90;;;;;;5068423;28;20020;-73
2021/12/08 06:52:59;;;;;;;7.90;2.03;;;6.70;99.90;;;;;;5053099;28;20028;-72
2021/12/08 06:55:31;;;;;;;9.25;1.80;;;6.60;99.90;;;;;;5055011;28;20041;-73
2021/12/08 06:58:03;;;;;;;;;;;6.70;99.90;;;;;;5051562;28;20025;-73
2021/12/08 07:00:47;;;;;;;14.57;2.75;;;6.60;99.90;;;;;;5054861;28;19916;-73
2021/12/08 07:06:11;;;;;;;8.18;2.13;;;6.60;99.90;;;;;;5051774;28;20059;-73
2021/12/08 07:08:51;;;;;;;9.15;2.28;;;6.70;99.90;;;;;;5054813;28;20032;-73
2021/12/08 07:11:20;;;;;;;11.30;2.17;;;6.60;99.90;;;;;;5054778;28;20085;-73
2021/12/08 07:13:48;;;;;;;13.00;2.08;;;6.50;99.90;;;;;;5054758;28;20021;-72
2021/12/08 07:16:19;;;;;;;13.10;2.40;;;6.50;99.90;;;;;;5055698;28;20037;-73
2021/12/08 07:19:00;;;;;;;9.60;2.00;;;6.50;99.90;;;;;;5051832;28;20100;-73
2021/12/08 07:21:32;;;;;;;8.98;1.80;;;6.50;99.90;;;;;;5053007;28;20080;-72
2021/12/08 07:24:21;;;;;;;8.63;2.17;;;6.40;99.90;;;;;;5054567;28;20464;-73
2021/12/08 07:26:50;;;;;;;10.88;2.40;;;6.40;99.90;;;;;;5052903;28;20389;-76
2021/12/08 07:29:21;;;;;;;7.88;1.45;;;6.40;99.90;;;;;;5054075;28;20039;-71
2021/12/08 07:32:00;;;;;;;6.38;1.67;;;6.30;99.90;;;;;;5054071;28;20029;-74
2021/12/08 07:34:27;;;;;;;13.40;2.13;;;6.30;99.90;;;;;;5053859;28;20396;-74
2021/12/08 07:36:59;;;;;;;6.70;1.70;;;6.40;99.90;;;;;;5054592;28;20049;-73
2021/12/08 07:39:32;;;;;;;10.75;2.03;;;6.40;99.90;;;;;;5051108;28;20028;-73
2021/12/08 07:42:09;;;;;;;12.35;2.45;;;6.40;99.90;;;;;;5052916;28;20492;-75
2021/12/08 07:44:35;;;;;;;8.13;2.10;;;6.40;99.90;;;;;;5052595;28;20412;-73
2021/12/08 07:47:09;;;;;;;24.00;2.58;;;6.40;99.90;;;;;;5059316;28;20033;-74
2021/12/08 07:49:39;;;;;;;12.95;2.00;;;6.50;99.90;;;;;;5054092;28;20094;-74
2021/12/08 07:52:09;;;;;;;10.52;2.05;;;6.50;99.90;;;;;;5048344;28;20021;-71
2021/12/08 07:54:36;;;;;;;10.20;1.80;;;6.50;99.90;;;;;;5053641;28;20045;-73
2021/12/08 07:57:06;;;;;;;5.80;2.30;;;6.60;99.90;;;;;;5050459;28;20039;-72
2021/12/08 07:59:35;;;;;;;5.85;1.80;;;6.60;99.90;;;;;;5054053;28;20024;-72
2021/12/08 08:50:52;;;;;;;10.73;2.65;;;5.10;99.90;;;;;;5128028;27;20410;-76
2021/12/08 08:53:19;;;;;;;9.15;2.55;;;5.80;99.90;;;;;;5112381;28;20106;-76
2021/12/08 08:55:53;;;;;;;8.95;2.33;;;6.00;99.90;;;;;;5103437;28;20030;-76
2021/12/08 08:58:23;;;;;;;6.00;2.38;;;6.30;99.90;;;;;;5105601;28;20028;-76
2021/12/08 09:01:24;;;;;;;5.88;2.20;;;6.40;99.90;;;;;;5103242;28;20039;-76
2021/12/08 09:03:54;;;;;;;8.10;2.40;;;6.40;99.90;;;;;;5082903;28;20036;-77
2021/12/08 09:06:28;;;;;;;9.27;2.20;;;6.50;99.90;;;;;;5104745;28;20023;-77
2021/12/08 09:08:55;;;;;;;12.23;2.45;;;6.40;99.90;;;;;;5103369;28;20395;-78
2021/12/08 09:11:25;;;;;;;14.80;3.03;;;6.50;99.90;;;;;;5100113;28;20020;-77
2021/12/08 09:13:59;;;;;;;7.13;1.85;;;6.50;99.90;;;;;;5097981;28;20024;-78
2021/12/08 09:16:37;;;;;;;8.57;2.33;;;6.60;99.90;;;;;;5093171;28;20031;-77
2021/12/08 09:19:14;;;;;;;10.73;2.42;;;6.60;99.90;;;;;;5101705;28;20028;-77
2021/12/08 09:22:01;;;;;;;8.02;1.95;;;6.60;99.90;;;;;;5099720;28;20559;-78
2021/12/08 09:24:38;;;;;;;6.45;2.28;;;6.60;99.90;;;;;;5101733;28;20482;-77
2021/12/08 09:27:08;;;;;;;12.07;2.78;;;6.60;99.90;;;;;;5098051;28;20036;-77
2021/12/08 09:29:46;;;;;;;9.10;1.98;;;6.60;99.90;;;;;;5102213;28;20035;-77
2021/12/08 09:32:18;;;;;;;11.32;2.40;;;6.60;99.90;;;;;;5095336;28;20028;-77
2021/12/08 09:34:58;;;;;;;9.15;2.10;;;6.70;99.90;;;;;;5099358;28;20020;-77
2021/12/08 09:37:29;;;;;;;10.63;2.10;;;6.70;99.90;;;;;;5101986;28;20024;-78
2021/12/08 09:40:06;;;;;;;6.35;2.00;;;6.70;99.90;;;;;;5096059;28;20058;-77
2021/12/08 09:42:39;;;;;;;5.65;1.65;;;6.80;99.90;;;;;;5103854;28;20093;-77
2021/12/08 09:45:20;;;;;;;9.88;1.90;;;6.90;99.90;;;;;;5078845;28;20464;-78
2021/12/08 09:47:45;;;;;;;8.88;2.33;;;6.90;99.90;;;;;;5082246;28;20032;-76
2021/12/08 09:50:13;;;;;;;9.13;2.63;;;7.00;99.90;;;;;;5071922;28;20040;-76
2021/12/08 09:52:41;;;;;;;7.47;1.90;;;7.10;99.90;;;;;;5064303;28;20040;-76
2021/12/08 09:55:09;;;;;;;6.20;2.13;;;7.00;99.90;;;;;;5063638;28;20029;-76
2021/12/08 09:57:35;;;;;;;10.73;1.90;;;7.10;99.90;;;;;;5065360;28;20476;-77
2021/12/08 10:00:03;;;;;;;13.27;1.95;;;7.10;99.90;;;;;;5065777;28;20023;-76
2021/12/08 10:02:34;;;;;;;7.78;2.47;;;7.10;99.90;;;;;;5061655;28;20039;-77
2021/12/08 10:05:08;;;;;;;5.15;1.90;;;7.10;99.90;;;;;;5066918;28;20016;-76
2021/12/08 10:07:34;;;;;;;15.93;2.47;;;7.10;99.90;;;;;;5080109;28;20111;-76
2021/12/08 10:10:00;;;;;;;10.02;2.35;;;7.10;99.90;;;;;;5072553;28;20376;-77
2021/12/08 10:12:25;;;;;;;11.00;2.35;;;7.10;99.90;;;;;;5072271;28;20033;-77
2021/12/08 10:14:51;;;;;;;9.13;2.15;;;7.10;99.90;;;;;;5079096;28;20496;-75
2021/12/08 10:17:19;;;;;;;9.55;1.98;;;7.10;99.90;;;;;;5075397;28;20508;-75
2021/12/08 10:20:02;;;;;;;6.22;2.05;;;7.20;99.90;;;;;;5066994;28;20029;-75
2021/12/08 10:22:27;;;;;;;;;;;7.30;99.90;;;;;;5074528;28;20044;-71
2021/12/08 10:25:05;;;;;;;11.10;2.00;;;7.30;99.90;;;;;;5077244;28;19924;-72
2021/12/08 10:27:32;;;;;;;9.82;1.75;;;7.30;99.90;;;;;;5069187;28;20028;-75
2021/12/08 10:30:21;;;;;;;10.75;2.05;;;7.30;99.90;;;;;;5066754;28;20056;-76
2021/12/08 10:32:49;;;;;;;6.22;1.90;;;7.30;99.90;;;;;;5071509;28;20029;-76
2021/12/08 10:35:44;;;;;;;8.27;2.28;;;7.30;99.90;;;;;;5063371;28;20025;-75
2021/12/08 10:38:11;;;;;;;6.18;1.60;;;7.30;99.90;;;;;;5074831;28;20385;-75
2021/12/08 10:40:37;;;;;;;9.23;1.85;;;7.20;99.90;;;;;;5074852;28;20025;-75
2021/12/08 10:43:14;;;;;;;6.03;1.83;;;7.30;99.90;;;;;;5076790;28;20117;-75
2021/12/08 10:45:40;;;;;;;11.35;2.35;;;7.30;99.90;;;;;;5072551;28;20024;-75
2021/12/08 10:48:07;;;;;;;7.43;2.65;;;7.20;99.90;;;;;;5069443;28;20043;-75
2021/12/08 10:56:24;;;;;;;9.13;2.05;;;7.40;99.90;;;;;;5073081;28;20122;-77
2021/12/08 10:58:50;;;;;;;6.88;1.70;;;7.40;99.90;;;;;;5066024;28;20028;-76
2021/12/08 11:01:18;;;;;;;8.68;1.80;;;7.40;99.90;;;;;;5073014;28;20017;-76
2021/12/08 11:03:45;;;;;;;4.38;1.48;;;7.50;99.90;;;;;;5083926;28;20076;-77
2021/12/08 11:06:15;;;;;;;7.35;2.08;;;7.50;99.90;;;;;;5075544;28;20027;-77
2021/12/08 11:08:44;;;;;;;5.20;2.15;;;7.50;99.90;;;;;;5072848;28;20024;-77
2021/12/08 11:11:18;;;;;;;4.45;1.90;;;7.60;99.90;;;;;;5081768;28;20028;-77
2021/12/08 11:13:46;;;;;;;7.63;2.22;;;7.60;99.90;;;;;;5083244;28;20490;-78
2021/12/08 11:16:16;;;;;;;4.30;1.80;;;7.60;99.90;;;;;;5070457;28;20142;-79
2021/12/08 11:18:50;;;;;;;5.70;1.90;;;7.70;99.90;;;;;;5076357;28;20028;-79
2021/12/08 11:21:24;;;;;;;9.75;2.47;;;7.70;99.90;;;;;;5082046;28;20162;-79
2021/12/08 11:23:52;;;;;;;4.68;1.65;;;7.80;99.90;;;;;;5074259;28;21276;-79
2021/12/08 11:26:21;;;;;;;9.55;2.30;;;7.70;99.90;;;;;;5075637;28;20048;-79
2021/12/08 11:29:07;;;;;;;6.40;2.13;;;7.70;99.90;;;;;;5075632;28;20395;-80
2021/12/08 11:31:40;;;;;;;6.38;2.50;;;7.60;99.90;;;;;;5070745;28;20024;-76
2021/12/08 11:34:15;;;;;;;6.93;2.03;;;7.70;99.90;;;;;;5069841;28;20017;-76
2021/12/08 11:36:42;;;;;;;80.65;8.35;;;7.70;99.90;;;;;;5073314;28;20031;-76
2021/12/08 11:39:17;;;;;;;12.95;2.55;;;7.90;99.90;;;;;;5068554;28;20041;-76
2021/12/08 11:41:47;;;;;;;10.65;1.85;;;7.90;99.90;;;;;;5071788;28;20021;-76
2021/12/08 11:44:17;;;;;;;7.35;2.08;;;8.00;99.90;;;;;;5069106;28;20028;-76
2021/12/08 11:46:54;;;;;;;9.65;1.88;;;8.00;99.90;;;;;;5075194;28;20024;-76
2021/12/08 11:49:21;;;;;;;9.65;1.90;;;8.00;99.90;;;;;;5076488;28;20484;-76
2021/12/08 11:51:46;;;;;;;6.68;2.00;;;8.10;99.90;;;;;;5066659;28;20055;-76
2021/12/08 11:54:35;;;;;;;8.80;1.80;;;8.10;99.90;;;;;;5071830;28;20527;-75
2021/12/08 11:57:10;;;;;;;6.68;2.05;;;8.10;99.90;;;;;;5063218;28;20033;-76
2021/12/08 11:59:59;;;;;;;4.50;1.88;;;8.10;99.90;;;;;;5074532;28;20059;-77
2021/12/08 12:02:36;;;;;;;12.90;1.92;;;8.00;99.90;;;;;;5069290;28;20354;-76
2021/12/08 12:05:06;;;;;;;10.02;2.00;;;8.10;99.90;;;;;;5077906;28;20397;-76
2021/12/08 12:07:32;;;;;;;7.03;1.98;;;8.00;99.90;;;;;;5074875;28;20024;-76
2021/12/08 12:09:58;;;;;;;4.18;2.00;;;8.10;99.90;;;;;;5066823;28;20047;-77
2021/12/08 12:12:24;;;;;;;7.43;2.30;;;8.10;99.90;;;;;;5080793;28;20030;-77
2021/12/08 12:14:49;;;;;;;6.80;2.10;;;8.10;99.90;;;;;;5077358;28;20422;-76
2021/12/08 12:17:16;;;;;;;5.85;2.53;;;8.20;99.90;;;;;;5070635;28;20436;-78
2021/12/08 12:19:50;;;;;;;8.80;2.30;;;8.20;99.90;;;;;;5076844;28;20081;-77
2021/12/08 12:22:31;;;;;;;7.55;1.48;;;8.30;99.90;;;;;;5079673;28;20025;-78
2021/12/08 12:25:26;;;;;;;12.10;2.08;;;8.30;99.90;;;;;;5071962;28;20451;-78
2021/12/08 12:28:19;;;;;;;8.10;2.35;;;8.30;99.90;;;;;;5071939;28;20027;-78
2021/12/08 12:31:03;;;;;;;;;;;8.30;99.90;;;;;;5066419;28;21713;-76
2021/12/08 12:33:41;;;;;;;9.20;1.98;;;8.20;99.90;;;;;;5073332;28;19998;-78
2021/12/08 12:36:24;;;;;;;7.00;2.30;;;8.20;99.90;;;;;;5067143;28;20028;-78
2021/12/08 12:38:51;;;;;;;8.93;2.28;;;8.20;99.90;;;;;;5068161;28;20129;-76
2021/12/08 12:41:30;;;;;;;7.13;2.00;;;8.20;99.90;;;;;;5073203;28;20021;-77
2021/12/08 12:44:17;;;;;;;9.02;2.78;;;8.20;99.90;;;;;;5072030;28;20023;-76
2021/12/08 12:47:09;;;;;;;9.85;2.25;;;8.20;99.90;;;;;;5068551;28;20036;-77
2021/12/08 12:49:37;;;;;;;12.65;1.90;;;8.20;99.90;;;;;;5064292;28;20048;-77
2021/12/08 12:52:08;;;;;;;8.60;1.60;;;8.10;99.90;;;;;;5061316;28;20071;-77
2021/12/08 12:54:35;;;;;;;8.95;1.88;;;8.00;99.90;;;;;;5064620;28;20100;-76
2021/12/08 12:57:03;;;;;;;8.02;2.00;;;8.00;99.90;;;;;;5064073;28;20017;-76
2021/12/08 12:59:50;;;;;;;8.32;1.77;;;8.10;99.90;;;;;;5068909;28;20055;-78
2021/12/08 13:02:22;;;;;;;8.50;1.98;;;8.10;99.90;;;;;;5072172;28;20123;-79
2021/12/08 13:05:00;;;;;;;10.80;2.10;;;8.10;99.90;;;;;;5066043;28;20047;-79
2021/12/08 13:07:28;;;;;;;6.57;2.00;;;8.10;99.90;;;;;;5069018;28;20598;-78
2021/12/08 13:09:56;;;;;;;8.25;1.88;;;8.10;99.90;;;;;;5070805;28;20063;-79
2021/12/08 13:12:35;;;;;;;3.78;1.45;;;8.10;99.90;;;;;;5059840;28;20103;-77
2021/12/08 13:15:08;;;;;;;8.75;2.42;;;8.10;99.90;;;;;;5064272;28;20032;-77
2021/12/08 13:17:35;;;;;;;3.97;1.77;;;8.10;99.90;;;;;;5081483;28;20058;-79
2021/12/08 13:20:10;;;;;;;8.15;2.08;;;8.20;99.90;;;;;;5067270;28;20406;-78
2021/12/08 13:22:55;;;;;;;7.05;1.77;;;8.20;99.90;;;;;;5067191;28;20032;-77
2021/12/08 13:25:47;;;;;;;10.18;2.08;;;8.20;99.90;;;;;;5069428;28;20105;-78
2021/12/08 13:28:30;;;;;;;6.13;1.88;;;8.20;99.90;;;;;;5086142;28;20039;-78
2021/12/08 13:31:08;;;;;;;9.07;1.92;;;8.10;99.90;;;;;;5077941;28;20065;-78
2021/12/08 13:33:36;;;;;;;8.50;2.00;;;8.10;99.90;;;;;;5065385;28;20480;-76
2021/12/08 13:36:22;;;;;;;4.00;2.35;;;8.10;99.90;;;;;;5077167;28;20029;-77
2021/12/08 13:38:53;;;;;;;5.07;2.22;;;8.20;99.90;;;;;;5071983;28;20423;-80
2021/12/08 13:41:21;;;;;;;8.20;2.20;;;8.20;99.90;;;;;;5072232;28;20035;-80
2021/12/08 13:43:49;;;;;;;4.78;2.33;;;8.20;99.90;;;;;;5071215;28;20017;-79
2021/12/08 13:46:34;;;;;;;6.72;1.60;;;8.20;99.90;;;;;;5074017;28;20111;-79
2021/12/08 13:49:19;;;;;;;7.18;1.58;;;8.20;99.90;;;;;;5076754;28;20102;-75
2021/12/08 13:52:06;;;;;;;5.68;1.85;;;8.10;99.90;;;;;;5071742;28;20052;-76
2021/12/08 13:54:38;;;;;;;7.05;1.98;;;8.20;99.90;;;;;;5067124;28;20032;-76
2021/12/08 13:57:25;;;;;;;5.35;2.08;;;8.20;99.90;;;;;;5066361;28;20035;-76
2021/12/08 13:59:52;;;;;;;6.15;1.92;;;8.20;99.90;;;;;;5069831;28;20044;-77
2021/12/08 14:02:27;;;;;;;7.57;2.30;;;8.20;99.90;;;;;;5071147;28;20059;-76
2021/12/08 14:05:00;;;;;;;5.00;1.73;;;8.20;99.90;;;;;;5073196;28;20104;-76
2021/12/08 14:07:26;;;;;;;15.10;2.53;;;8.30;99.90;;;;;;5063583;28;20103;-76
2021/12/08 14:09:57;;;;;;;10.57;2.53;;;8.30;99.90;;;;;;5065203;28;20048;-76
2021/12/08 14:12:23;;;;;;;4.10;1.70;;;8.30;99.90;;;;;;5064841;28;20025;-77
2021/12/08 14:14:57;;;;;;;4.50;2.20;;;8.20;99.90;;;;;;5066766;28;20048;-76
2021/12/08 14:17:29;;;;;;;10.52;2.60;;;8.30;99.90;;;;;;5064709;28;20025;-76
2021/12/08 14:19:55;;;;;;;6.20;2.40;;;8.30;99.90;;;;;;5068227;28;20060;-76
2021/12/08 14:22:21;;;;;;;10.50;3.00;;;8.40;99.90;;;;;;5066752;28;20683;-76
2021/12/08 14:24:57;;;;;;;3.25;1.88;;;8.30;99.90;;;;;;5058269;28;20058;-75
2021/12/08 14:27:29;;;;;;;7.55;2.67;;;8.30;99.90;;;;;;5066050;28;20025;-76
2021/12/08 14:29:57;;;;;;;8.05;2.00;;;8.30;99.90;;;;;;5063013;28;20039;-76
2021/12/08 14:32:23;;;;;;;8.05;2.58;;;8.30;99.90;;;;;;5060871;28;20025;-76
2021/12/08 14:34:49;;;;;;;6.20;2.80;;;8.40;99.90;;;;;;5069922;28;20115;-76
2021/12/08 14:37:15;;;;;;;7.28;2.10;;;8.30;99.90;;;;;;5065660;28;20127;-76
2021/12/08 14:39:45;;;;;;;6.50;2.28;;;8.20;99.90;;;;;;5063373;28;20036;-76
2021/12/08 14:42:13;;;;;;;5.82;2.13;;;8.30;99.90;;;;;;5064467;28;20039;-76
2021/12/08 14:44:45;;;;;;;7.57;2.53;;;8.30;99.90;;;;;;5063696;28;20052;-76
2021/12/08 14:47:16;;;;;;;3.85;2.03;;;8.40;99.90;;;;;;5067201;28;20132;-77
2021/12/08 14:49:56;;;;;;;6.78;2.47;;;8.40;99.90;;;;;;5066919;28;20041;-76